<?xml version="1.0" encoding="UTF-8" standalone="no" ?>
<gpx xmlns="http://www.topografix.com/GPX/1/1" xmlns:xsi="http://www.w3.org/2001/XMLSchema-instance" xsi:schemaLocation="http://www.topografix.com/GPX/1/1 http://www.topografix.com/GPX/1/1/gpx.xsd" version="1.1" creator="VisuGPX - https://www.visugpx.com">
  <metadata>
    <name>vieille eglise</name>
    <desc><![CDATA[Depart vieille église
Chemin route et piste ]]></desc>
  </metadata>
  <trk>
    <name><![CDATA[20180401150726-Sfbbb]]></name>
    <trkseg>
      <trkpt lat="48.66925" lon="1.87296">
        <ele>178</ele>
        <time>2018-04-01T14:58:26Z</time>
      </trkpt>
      <trkpt lat="48.66954" lon="1.87223">
        <ele>175</ele>
        <time>2018-04-01T14:59:26Z</time>
      </trkpt>
      <trkpt lat="48.67268" lon="1.8703">
        <ele>175</ele>
        <time>2018-04-01T15:00:26Z</time>
      </trkpt>
      <trkpt lat="48.67472" lon="1.87111">
        <ele>175</ele>
        <time>2018-04-01T15:01:26Z</time>
      </trkpt>
      <trkpt lat="48.67472" lon="1.87055">
        <ele>176</ele>
        <time>2018-04-01T15:02:26Z</time>
      </trkpt>
      <trkpt lat="48.67671" lon="1.87124">
        <ele>173</ele>
        <time>2018-04-01T15:03:26Z</time>
      </trkpt>
      <trkpt lat="48.6775" lon="1.87098">
        <ele>173</ele>
        <time>2018-04-01T15:04:26Z</time>
      </trkpt>
      <trkpt lat="48.67742" lon="1.87158">
        <ele>172</ele>
        <time>2018-04-01T15:05:26Z</time>
      </trkpt>
      <trkpt lat="48.67912" lon="1.8715">
        <ele>175</ele>
        <time>2018-04-01T15:06:26Z</time>
      </trkpt>
      <trkpt lat="48.68056" lon="1.8712">
        <ele>172</ele>
        <time>2018-04-01T15:07:26Z</time>
      </trkpt>
      <trkpt lat="48.68079" lon="1.87051">
        <ele>172</ele>
        <time>2018-04-01T15:08:26Z</time>
      </trkpt>
      <trkpt lat="48.68492" lon="1.8824">
        <ele>177</ele>
        <time>2018-04-01T15:09:26Z</time>
      </trkpt>
      <trkpt lat="48.68606" lon="1.88536">
        <ele>180</ele>
        <time>2018-04-01T15:10:26Z</time>
      </trkpt>
      <trkpt lat="48.68592" lon="1.90532">
        <ele>181</ele>
        <time>2018-04-01T15:11:26Z</time>
      </trkpt>
      <trkpt lat="48.686" lon="1.90755">
        <ele>175</ele>
        <time>2018-04-01T15:12:26Z</time>
      </trkpt>
      <trkpt lat="48.68597" lon="1.90845">
        <ele>169</ele>
        <time>2018-04-01T15:13:26Z</time>
      </trkpt>
      <trkpt lat="48.68558" lon="1.90896">
        <ele>163</ele>
        <time>2018-04-01T15:14:26Z</time>
      </trkpt>
      <trkpt lat="48.6866" lon="1.91072">
        <ele>149</ele>
        <time>2018-04-01T15:15:26Z</time>
      </trkpt>
      <trkpt lat="48.686" lon="1.91081">
        <ele>150</ele>
        <time>2018-04-01T15:16:26Z</time>
      </trkpt>
      <trkpt lat="48.68549" lon="1.91042">
        <ele>153</ele>
        <time>2018-04-01T15:17:26Z</time>
      </trkpt>
      <trkpt lat="48.68458" lon="1.91051">
        <ele>161</ele>
        <time>2018-04-01T15:18:26Z</time>
      </trkpt>
      <trkpt lat="48.68424" lon="1.9112">
        <ele>163</ele>
        <time>2018-04-01T15:19:26Z</time>
      </trkpt>
      <trkpt lat="48.68345" lon="1.91145">
        <ele>166</ele>
        <time>2018-04-01T15:20:26Z</time>
      </trkpt>
      <trkpt lat="48.68294" lon="1.91124">
        <ele>168</ele>
        <time>2018-04-01T15:21:26Z</time>
      </trkpt>
      <trkpt lat="48.68195" lon="1.91201">
        <ele>176</ele>
        <time>2018-04-01T15:22:26Z</time>
      </trkpt>
      <trkpt lat="48.68186" lon="1.91235">
        <ele>176</ele>
        <time>2018-04-01T15:23:26Z</time>
      </trkpt>
      <trkpt lat="48.68144" lon="1.91231">
        <ele>177</ele>
        <time>2018-04-01T15:24:26Z</time>
      </trkpt>
      <trkpt lat="48.68138" lon="1.9127">
        <ele>176</ele>
        <time>2018-04-01T15:25:26Z</time>
      </trkpt>
      <trkpt lat="48.67951" lon="1.91265">
        <ele>176</ele>
        <time>2018-04-01T15:26:26Z</time>
      </trkpt>
      <trkpt lat="48.67679" lon="1.91291">
        <ele>176</ele>
        <time>2018-04-01T15:27:26Z</time>
      </trkpt>
      <trkpt lat="48.67645" lon="1.9163">
        <ele>175</ele>
        <time>2018-04-01T15:28:26Z</time>
      </trkpt>
      <trkpt lat="48.67424" lon="1.91536">
        <ele>175</ele>
        <time>2018-04-01T15:29:26Z</time>
      </trkpt>
      <trkpt lat="48.67447" lon="1.91476">
        <ele>175</ele>
        <time>2018-04-01T15:30:26Z</time>
      </trkpt>
      <trkpt lat="48.6745" lon="1.91321">
        <ele>175</ele>
        <time>2018-04-01T15:31:26Z</time>
      </trkpt>
      <trkpt lat="48.67277" lon="1.91248">
        <ele>172</ele>
        <time>2018-04-01T15:32:26Z</time>
      </trkpt>
      <trkpt lat="48.67146" lon="1.91368">
        <ele>171</ele>
        <time>2018-04-01T15:33:26Z</time>
      </trkpt>
      <trkpt lat="48.66945" lon="1.91489">
        <ele>172</ele>
        <time>2018-04-01T15:34:26Z</time>
      </trkpt>
      <trkpt lat="48.66738" lon="1.91553">
        <ele>172</ele>
        <time>2018-04-01T15:35:26Z</time>
      </trkpt>
      <trkpt lat="48.66529" lon="1.91733">
        <ele>172</ele>
        <time>2018-04-01T15:36:26Z</time>
      </trkpt>
      <trkpt lat="48.66052" lon="1.91849">
        <ele>169</ele>
        <time>2018-04-01T15:37:26Z</time>
      </trkpt>
      <trkpt lat="48.65857" lon="1.91926">
        <ele>170</ele>
        <time>2018-04-01T15:38:26Z</time>
      </trkpt>
      <trkpt lat="48.65857" lon="1.91725">
        <ele>175</ele>
        <time>2018-04-01T15:39:26Z</time>
      </trkpt>
      <trkpt lat="48.65525" lon="1.92467">
        <ele>173</ele>
        <time>2018-04-01T15:40:26Z</time>
      </trkpt>
      <trkpt lat="48.6563" lon="1.92549">
        <ele>171</ele>
        <time>2018-04-01T15:41:26Z</time>
      </trkpt>
      <trkpt lat="48.65658" lon="1.93171">
        <ele>164</ele>
        <time>2018-04-01T15:42:26Z</time>
      </trkpt>
      <trkpt lat="48.6563" lon="1.93231">
        <ele>162</ele>
        <time>2018-04-01T15:43:26Z</time>
      </trkpt>
      <trkpt lat="48.65511" lon="1.93265">
        <ele>159</ele>
        <time>2018-04-01T15:44:26Z</time>
      </trkpt>
      <trkpt lat="48.65276" lon="1.93021">
        <ele>178</ele>
        <time>2018-04-01T15:45:26Z</time>
      </trkpt>
      <trkpt lat="48.65193" lon="1.93235">
        <ele>174</ele>
        <time>2018-04-01T15:46:26Z</time>
      </trkpt>
      <trkpt lat="48.65077" lon="1.93523">
        <ele>171</ele>
        <time>2018-04-01T15:47:26Z</time>
      </trkpt>
      <trkpt lat="48.64859" lon="1.92853">
        <ele>171</ele>
        <time>2018-04-01T15:48:26Z</time>
      </trkpt>
      <trkpt lat="48.64601" lon="1.92591">
        <ele>173</ele>
        <time>2018-04-01T15:49:26Z</time>
      </trkpt>
      <trkpt lat="48.6529" lon="1.91081">
        <ele>178</ele>
        <time>2018-04-01T15:50:26Z</time>
      </trkpt>
      <trkpt lat="48.65959" lon="1.89557">
        <ele>180</ele>
        <time>2018-04-01T15:51:26Z</time>
      </trkpt>
      <trkpt lat="48.67169" lon="1.88587">
        <ele>171</ele>
        <time>2018-04-01T15:52:26Z</time>
      </trkpt>
      <trkpt lat="48.67291" lon="1.87802">
        <ele>172</ele>
        <time>2018-04-01T15:53:26Z</time>
      </trkpt>
      <trkpt lat="48.6724" lon="1.87596">
        <ele>173</ele>
        <time>2018-04-01T15:54:26Z</time>
      </trkpt>
      <trkpt lat="48.67189" lon="1.87412">
        <ele>172</ele>
        <time>2018-04-01T15:55:26Z</time>
      </trkpt>
      <trkpt lat="48.67036" lon="1.87489">
        <ele>172</ele>
        <time>2018-04-01T15:56:26Z</time>
      </trkpt>
      <trkpt lat="48.67008" lon="1.87231">
        <ele>174</ele>
        <time>2018-04-01T15:57:26Z</time>
      </trkpt>
    </trkseg>
  </trk>
</gpx>